sensor_id;sensor_type;location;lat;lon;timestamp;temperature;humidity
7307;DHT22;3694;48.732;9.248;2023-07-13T00:02:05;18.40;91.60
7307;DHT22;3694;48.732;9.248;2023-07-13T00:04:31;18.40;91.40
7307;DHT22;3694;48.732;9.248;2023-07-13T00:06:57;18.40;91.50
7307;DHT22;3694;48.732;9.248;2023-07-13T00:09:23;18.30;91.80
7307;DHT22;3694;48.732;9.248;2023-07-13T00:11:56;18.20;91.90
7307;DHT22;3694;48.732;9.248;2023-07-13T00:14:23;18.10;91.90
7307;DHT22;3694;48.732;9.248;2023-07-13T00:16:49;18.10;91.80
7307;DHT22;3694;48.732;9.248;2023-07-13T00:19:14;18.00;91.70
7307;DHT22;3694;48.732;9.248;2023-07-13T00:21:41;17.90;91.80
7307;DHT22;3694;48.732;9.248;2023-07-13T00:24:11;18.00;91.80
7307;DHT22;3694;48.732;9.248;2023-07-13T00:26:41;17.90;91.90
7307;DHT22;3694;48.732;9.248;2023-07-13T00:29:10;17.80;91.90
7307;DHT22;3694;48.732;9.248;2023-07-13T00:31:36;17.80;91.90
7307;DHT22;3694;48.732;9.248;2023-07-13T00:34:02;17.70;92.20
7307;DHT22;3694;48.732;9.248;2023-07-13T00:36:29;17.60;92.60
7307;DHT22;3694;48.732;9.248;2023-07-13T00:38:55;17.60;92.70
7307;DHT22;3694;48.732;9.248;2023-07-13T00:41:21;17.50;92.90
7307;DHT22;3694;48.732;9.248;2023-07-13T00:43:47;17.40;93.10
7307;DHT22;3694;48.732;9.248;2023-07-13T00:46:23;17.30;93.40
7307;DHT22;3694;48.732;9.248;2023-07-13T00:48:50;17.20;93.60
7307;DHT22;3694;48.732;9.248;2023-07-13T00:51:22;17.10;94.30
7307;DHT22;3694;48.732;9.248;2023-07-13T00:53:50;16.90;94.60
7307;DHT22;3694;48.732;9.248;2023-07-13T00:56:16;16.70;95.70
7307;DHT22;3694;48.732;9.248;2023-07-13T00:58:42;16.50;96.40
7307;DHT22;3694;48.732;9.248;2023-07-13T01:01:08;16.20;97.00
7307;DHT22;3694;48.732;9.248;2023-07-13T01:03:34;16.10;97.40
7307;DHT22;3694;48.732;9.248;2023-07-13T01:06:00;16.30;97.10
7307;DHT22;3694;48.732;9.248;2023-07-13T01:08:26;16.20;97.40
7307;DHT22;3694;48.732;9.248;2023-07-13T01:10:54;16.00;97.70
7307;DHT22;3694;48.732;9.248;2023-07-13T01:13:20;15.90;98.10
7307;DHT22;3694;48.732;9.248;2023-07-13T01:15:47;15.80;98.70
7307;DHT22;3694;48.732;9.248;2023-07-13T01:18:20;15.70;98.80
7307;DHT22;3694;48.732;9.248;2023-07-13T01:20:59;15.70;99.10
7307;DHT22;3694;48.732;9.248;2023-07-13T01:23:26;15.80;98.20
7307;DHT22;3694;48.732;9.248;2023-07-13T01:25:53;15.90;98.50
7307;DHT22;3694;48.732;9.248;2023-07-13T01:28:21;15.80;98.70
7307;DHT22;3694;48.732;9.248;2023-07-13T01:30:47;15.90;99.00
7307;DHT22;3694;48.732;9.248;2023-07-13T01:33:14;15.80;99.50
7307;DHT22;3694;48.732;9.248;2023-07-13T01:35:42;15.80;99.40
7307;DHT22;3694;48.732;9.248;2023-07-13T01:38:08;15.80;99.10
7307;DHT22;3694;48.732;9.248;2023-07-13T01:40:35;15.80;98.40
7307;DHT22;3694;48.732;9.248;2023-07-13T01:43:01;15.70;98.00
7307;DHT22;3694;48.732;9.248;2023-07-13T01:45:26;15.50;98.80
7307;DHT22;3694;48.732;9.248;2023-07-13T01:47:52;15.30;99.50
7307;DHT22;3694;48.732;9.248;2023-07-13T01:50:17;15.10;99.80
7307;DHT22;3694;48.732;9.248;2023-07-13T01:52:43;15.00;99.90
7307;DHT22;3694;48.732;9.248;2023-07-13T01:55:09;15.00;99.90
7307;DHT22;3694;48.732;9.248;2023-07-13T01:57:34;14.90;99.90
7307;DHT22;3694;48.732;9.248;2023-07-13T02:00:03;14.60;99.90
7307;DHT22;3694;48.732;9.248;2023-07-13T02:02:30;14.50;99.90
7307;DHT22;3694;48.732;9.248;2023-07-13T02:04:55;14.40;99.90
7307;DHT22;3694;48.732;9.248;2023-07-13T02:07:21;14.40;99.90
7307;DHT22;3694;48.732;9.248;2023-07-13T02:09:47;14.40;99.90
7307;DHT22;3694;48.732;9.248;2023-07-13T02:12:12;14.40;99.90
7307;DHT22;3694;48.732;9.248;2023-07-13T02:14:38;14.40;99.90
7307;DHT22;3694;48.732;9.248;2023-07-13T02:17:04;14.50;99.90
7307;DHT22;3694;48.732;9.248;2023-07-13T02:19:30;14.60;99.90
7307;DHT22;3694;48.732;9.248;2023-07-13T02:21:56;14.40;99.90
7307;DHT22;3694;48.732;9.248;2023-07-13T02:24:21;14.50;99.90
7307;DHT22;3694;48.732;9.248;2023-07-13T02:26:47;14.50;99.90
7307;DHT22;3694;48.732;9.248;2023-07-13T02:29:13;14.30;99.90
7307;DHT22;3694;48.732;9.248;2023-07-13T02:31:39;14.20;99.90
7307;DHT22;3694;48.732;9.248;2023-07-13T02:34:05;14.00;99.90
7307;DHT22;3694;48.732;9.248;2023-07-13T02:36:31;13.90;99.90
7307;DHT22;3694;48.732;9.248;2023-07-13T02:39:00;13.80;99.90
7307;DHT22;3694;48.732;9.248;2023-07-13T02:41:26;13.90;99.90
7307;DHT22;3694;48.732;9.248;2023-07-13T02:43:52;13.80;99.90
7307;DHT22;3694;48.732;9.248;2023-07-13T02:46:18;13.70;99.90
7307;DHT22;3694;48.732;9.248;2023-07-13T02:48:45;13.70;99.90
7307;DHT22;3694;48.732;9.248;2023-07-13T02:51:10;13.80;99.90
7307;DHT22;3694;48.732;9.248;2023-07-13T02:53:36;13.90;99.90
7307;DHT22;3694;48.732;9.248;2023-07-13T02:56:03;13.90;99.90
7307;DHT22;3694;48.732;9.248;2023-07-13T02:58:28;13.80;99.90
7307;DHT22;3694;48.732;9.248;2023-07-13T03:00:55;13.80;99.90
7307;DHT22;3694;48.732;9.248;2023-07-13T03:03:21;13.80;99.90
7307;DHT22;3694;48.732;9.248;2023-07-13T03:05:47;13.70;99.90
7307;DHT22;3694;48.732;9.248;2023-07-13T03:08:16;13.70;99.90
7307;DHT22;3694;48.732;9.248;2023-07-13T03:10:43;13.70;99.90
7307;DHT22;3694;48.732;9.248;2023-07-13T03:13:09;13.80;99.90
7307;DHT22;3694;48.732;9.248;2023-07-13T03:15:34;13.70;99.90
7307;DHT22;3694;48.732;9.248;2023-07-13T03:18:00;13.80;99.90
7307;DHT22;3694;48.732;9.248;2023-07-13T03:20:25;14.00;99.90
7307;DHT22;3694;48.732;9.248;2023-07-13T03:22:51;14.10;99.90
7307;DHT22;3694;48.732;9.248;2023-07-13T03:25:17;14.20;99.90
7307;DHT22;3694;48.732;9.248;2023-07-13T03:27:42;14.20;99.90
7307;DHT22;3694;48.732;9.248;2023-07-13T03:30:08;14.30;99.90
7307;DHT22;3694;48.732;9.248;2023-07-13T03:32:34;14.60;99.90
7307;DHT22;3694;48.732;9.248;2023-07-13T03:35:00;15.00;99.90
7307;DHT22;3694;48.732;9.248;2023-07-13T03:37:26;15.10;99.90
7307;DHT22;3694;48.732;9.248;2023-07-13T03:39:52;15.20;99.90
7307;DHT22;3694;48.732;9.248;2023-07-13T03:42:17;15.30;99.90
7307;DHT22;3694;48.732;9.248;2023-07-13T03:44:43;15.60;99.90
7307;DHT22;3694;48.732;9.248;2023-07-13T03:47:17;15.80;99.90
7307;DHT22;3694;48.732;9.248;2023-07-13T03:49:43;15.90;99.90
7307;DHT22;3694;48.732;9.248;2023-07-13T03:52:08;16.00;99.90
7307;DHT22;3694;48.732;9.248;2023-07-13T03:54:34;16.10;99.90
7307;DHT22;3694;48.732;9.248;2023-07-13T03:56:59;16.30;99.90
7307;DHT22;3694;48.732;9.248;2023-07-13T03:59:25;16.20;99.90
7307;DHT22;3694;48.732;9.248;2023-07-13T04:01:51;16.30;99.50
7307;DHT22;3694;48.732;9.248;2023-07-13T04:04:16;16.30;99.80
7307;DHT22;3694;48.732;9.248;2023-07-13T04:06:42;16.30;99.90
7307;DHT22;3694;48.732;9.248;2023-07-13T04:09:07;16.30;99.90
7307;DHT22;3694;48.732;9.248;2023-07-13T04:11:34;16.40;99.90
7307;DHT22;3694;48.732;9.248;2023-07-13T04:14:02;16.40;99.90
7307;DHT22;3694;48.732;9.248;2023-07-13T04:16:27;16.40;99.90
7307;DHT22;3694;48.732;9.248;2023-07-13T04:18:54;16.40;98.00
7307;DHT22;3694;48.732;9.248;2023-07-13T04:21:22;16.50;97.80
7307;DHT22;3694;48.732;9.248;2023-07-13T04:23:48;16.60;97.20
7307;DHT22;3694;48.732;9.248;2023-07-13T04:26:13;16.60;97.60
7307;DHT22;3694;48.732;9.248;2023-07-13T04:28:39;16.70;98.00
7307;DHT22;3694;48.732;9.248;2023-07-13T04:31:04;16.80;97.60
7307;DHT22;3694;48.732;9.248;2023-07-13T04:33:30;16.80;97.70
7307;DHT22;3694;48.732;9.248;2023-07-13T04:35:56;17.10;98.60
7307;DHT22;3694;48.732;9.248;2023-07-13T04:38:28;17.00;98.10
7307;DHT22;3694;48.732;9.248;2023-07-13T04:40:56;17.00;96.20
7307;DHT22;3694;48.732;9.248;2023-07-13T04:43:22;17.10;96.10
7307;DHT22;3694;48.732;9.248;2023-07-13T04:45:48;17.30;96.00
7307;DHT22;3694;48.732;9.248;2023-07-13T04:48:13;16.90;95.70
7307;DHT22;3694;48.732;9.248;2023-07-13T04:50:39;17.00;96.40
7307;DHT22;3694;48.732;9.248;2023-07-13T04:53:05;17.00;95.80
7307;DHT22;3694;48.732;9.248;2023-07-13T04:55:31;17.10;95.90
7307;DHT22;3694;48.732;9.248;2023-07-13T04:57:57;17.10;95.80
7307;DHT22;3694;48.732;9.248;2023-07-13T05:00:28;17.20;96.90
7307;DHT22;3694;48.732;9.248;2023-07-13T05:02:57;17.10;96.20
7307;DHT22;3694;48.732;9.248;2023-07-13T05:05:24;17.10;96.70
7307;DHT22;3694;48.732;9.248;2023-07-13T05:07:50;17.20;96.30
7307;DHT22;3694;48.732;9.248;2023-07-13T05:10:16;17.30;95.70
7307;DHT22;3694;48.732;9.248;2023-07-13T05:12:41;17.40;95.90
7307;DHT22;3694;48.732;9.248;2023-07-13T05:15:07;17.50;95.50
7307;DHT22;3694;48.732;9.248;2023-07-13T05:17:33;17.60;94.60
7307;DHT22;3694;48.732;9.248;2023-07-13T05:19:58;17.80;94.70
7307;DHT22;3694;48.732;9.248;2023-07-13T05:22:24;17.90;94.20
7307;DHT22;3694;48.732;9.248;2023-07-13T05:24:50;18.30;93.30
7307;DHT22;3694;48.732;9.248;2023-07-13T05:27:16;18.40;93.00
7307;DHT22;3694;48.732;9.248;2023-07-13T05:29:41;18.60;93.10
7307;DHT22;3694;48.732;9.248;2023-07-13T05:32:07;18.80;92.70
7307;DHT22;3694;48.732;9.248;2023-07-13T05:34:32;19.00;91.50
7307;DHT22;3694;48.732;9.248;2023-07-13T05:36:58;19.00;91.30
7307;DHT22;3694;48.732;9.248;2023-07-13T05:39:23;19.10;90.70
7307;DHT22;3694;48.732;9.248;2023-07-13T05:41:50;19.20;90.60
7307;DHT22;3694;48.732;9.248;2023-07-13T05:44:15;19.20;90.20
7307;DHT22;3694;48.732;9.248;2023-07-13T05:46:41;19.20;88.80
7307;DHT22;3694;48.732;9.248;2023-07-13T05:49:06;19.10;89.20
7307;DHT22;3694;48.732;9.248;2023-07-13T05:51:32;19.00;90.30
7307;DHT22;3694;48.732;9.248;2023-07-13T05:53:57;19.00;90.80
7307;DHT22;3694;48.732;9.248;2023-07-13T05:56:23;19.00;90.50
7307;DHT22;3694;48.732;9.248;2023-07-13T05:58:49;18.90;90.30
7307;DHT22;3694;48.732;9.248;2023-07-13T06:01:15;18.90;90.30
7307;DHT22;3694;48.732;9.248;2023-07-13T06:03:41;19.00;90.10
7307;DHT22;3694;48.732;9.248;2023-07-13T06:06:09;18.90;90.30
7307;DHT22;3694;48.732;9.248;2023-07-13T06:08:35;19.10;90.10
7307;DHT22;3694;48.732;9.248;2023-07-13T06:11:03;19.00;87.70
7307;DHT22;3694;48.732;9.248;2023-07-13T06:13:28;19.00;89.30
7307;DHT22;3694;48.732;9.248;2023-07-13T06:15:55;19.30;87.70
7307;DHT22;3694;48.732;9.248;2023-07-13T06:18:20;20.20;88.00
7307;DHT22;3694;48.732;9.248;2023-07-13T06:20:46;21.40;83.60
7307;DHT22;3694;48.732;9.248;2023-07-13T06:23:11;22.40;78.00
7307;DHT22;3694;48.732;9.248;2023-07-13T06:25:37;22.80;73.60
7307;DHT22;3694;48.732;9.248;2023-07-13T06:28:03;23.60;73.40
7307;DHT22;3694;48.732;9.248;2023-07-13T06:30:28;24.30;70.00
7307;DHT22;3694;48.732;9.248;2023-07-13T06:32:54;24.90;69.10
7307;DHT22;3694;48.732;9.248;2023-07-13T06:35:19;25.90;67.00
7307;DHT22;3694;48.732;9.248;2023-07-13T06:37:45;27.00;63.10
7307;DHT22;3694;48.732;9.248;2023-07-13T06:40:12;27.30;60.00
7307;DHT22;3694;48.732;9.248;2023-07-13T06:42:38;26.80;58.80
7307;DHT22;3694;48.732;9.248;2023-07-13T06:45:04;26.90;59.50
7307;DHT22;3694;48.732;9.248;2023-07-13T06:47:30;27.40;58.30
7307;DHT22;3694;48.732;9.248;2023-07-13T06:49:55;28.10;56.30
7307;DHT22;3694;48.732;9.248;2023-07-13T06:52:21;27.80;56.60
7307;DHT22;3694;48.732;9.248;2023-07-13T06:54:46;27.80;58.00
7307;DHT22;3694;48.732;9.248;2023-07-13T06:57:12;28.30;55.70
7307;DHT22;3694;48.732;9.248;2023-07-13T06:59:37;28.40;54.80
7307;DHT22;3694;48.732;9.248;2023-07-13T07:02:03;28.50;53.00
7307;DHT22;3694;48.732;9.248;2023-07-13T07:04:29;29.00;54.60
7307;DHT22;3694;48.732;9.248;2023-07-13T07:06:54;29.20;51.30
7307;DHT22;3694;48.732;9.248;2023-07-13T07:09:20;29.60;51.50
7307;DHT22;3694;48.732;9.248;2023-07-13T07:11:46;29.40;49.80
7307;DHT22;3694;48.732;9.248;2023-07-13T07:14:11;29.20;49.80
7307;DHT22;3694;48.732;9.248;2023-07-13T07:16:37;29.40;51.30
7307;DHT22;3694;48.732;9.248;2023-07-13T07:19:02;29.60;50.00
7307;DHT22;3694;48.732;9.248;2023-07-13T07:21:28;30.10;48.90
7307;DHT22;3694;48.732;9.248;2023-07-13T07:23:53;30.30;48.00
7307;DHT22;3694;48.732;9.248;2023-07-13T07:26:19;30.10;48.40
7307;DHT22;3694;48.732;9.248;2023-07-13T07:28:45;30.10;47.00
7307;DHT22;3694;48.732;9.248;2023-07-13T07:31:11;29.40;47.20
7307;DHT22;3694;48.732;9.248;2023-07-13T07:33:36;29.00;46.20
7307;DHT22;3694;48.732;9.248;2023-07-13T07:36:02;29.30;47.60
7307;DHT22;3694;48.732;9.248;2023-07-13T07:38:28;29.10;46.00
7307;DHT22;3694;48.732;9.248;2023-07-13T07:40:54;29.40;46.80
7307;DHT22;3694;48.732;9.248;2023-07-13T07:43:19;29.20;45.60
7307;DHT22;3694;48.732;9.248;2023-07-13T07:45:45;29.30;46.60
7307;DHT22;3694;48.732;9.248;2023-07-13T07:48:11;29.40;43.80
7307;DHT22;3694;48.732;9.248;2023-07-13T07:50:37;28.90;45.70
7307;DHT22;3694;48.732;9.248;2023-07-13T07:53:04;29.10;44.60
7307;DHT22;3694;48.732;9.248;2023-07-13T07:55:33;29.10;45.10
7307;DHT22;3694;48.732;9.248;2023-07-13T07:57:59;29.70;45.50
7307;DHT22;3694;48.732;9.248;2023-07-13T08:00:25;29.30;45.50
7307;DHT22;3694;48.732;9.248;2023-07-13T08:02:51;29.40;46.30
7307;DHT22;3694;48.732;9.248;2023-07-13T08:05:16;29.70;45.00
7307;DHT22;3694;48.732;9.248;2023-07-13T08:07:42;29.90;43.70
7307;DHT22;3694;48.732;9.248;2023-07-13T08:10:08;30.00;45.20
7307;DHT22;3694;48.732;9.248;2023-07-13T08:12:38;30.50;43.90
7307;DHT22;3694;48.732;9.248;2023-07-13T08:15:05;30.30;42.50
7307;DHT22;3694;48.732;9.248;2023-07-13T08:17:31;29.90;43.20
7307;DHT22;3694;48.732;9.248;2023-07-13T08:19:57;29.80;44.30
7307;DHT22;3694;48.732;9.248;2023-07-13T08:22:22;30.10;43.00
7307;DHT22;3694;48.732;9.248;2023-07-13T08:24:48;30.20;43.60
7307;DHT22;3694;48.732;9.248;2023-07-13T08:27:21;30.00;43.30
7307;DHT22;3694;48.732;9.248;2023-07-13T08:29:48;30.50;43.70
7307;DHT22;3694;48.732;9.248;2023-07-13T08:32:13;30.30;45.00
7307;DHT22;3694;48.732;9.248;2023-07-13T08:34:39;30.10;43.50
7307;DHT22;3694;48.732;9.248;2023-07-13T08:37:05;30.10;46.00
7307;DHT22;3694;48.732;9.248;2023-07-13T08:39:31;29.90;43.60
7307;DHT22;3694;48.732;9.248;2023-07-13T08:42:02;28.90;44.20
7307;DHT22;3694;48.732;9.248;2023-07-13T08:47:16;27.80;46.10
7307;DHT22;3694;48.732;9.248;2023-07-13T08:49:43;28.30;45.20
7307;DHT22;3694;48.732;9.248;2023-07-13T08:52:20;28.90;43.20
7307;DHT22;3694;48.732;9.248;2023-07-13T08:54:53;29.20;43.80
7307;DHT22;3694;48.732;9.248;2023-07-13T08:57:27;30.10;44.20
7307;DHT22;3694;48.732;9.248;2023-07-13T08:59:55;30.30;44.10
7307;DHT22;3694;48.732;9.248;2023-07-13T09:02:48;30.90;43.80
7307;DHT22;3694;48.732;9.248;2023-07-13T09:05:30;30.90;43.80
7307;DHT22;3694;48.732;9.248;2023-07-13T09:08:21;30.20;43.60
7307;DHT22;3694;48.732;9.248;2023-07-13T09:10:57;30.00;43.40
7307;DHT22;3694;48.732;9.248;2023-07-13T09:13:49;29.90;44.40
7307;DHT22;3694;48.732;9.248;2023-07-13T09:16:17;29.80;44.30
7307;DHT22;3694;48.732;9.248;2023-07-13T09:18:49;28.90;42.50
7307;DHT22;3694;48.732;9.248;2023-07-13T09:21:39;27.60;44.20
7307;DHT22;3694;48.732;9.248;2023-07-13T09:24:29;27.30;45.30
7307;DHT22;3694;48.732;9.248;2023-07-13T09:26:58;27.40;45.70
7307;DHT22;3694;48.732;9.248;2023-07-13T09:29:29;27.80;44.30
7307;DHT22;3694;48.732;9.248;2023-07-13T09:31:58;28.50;46.60
7307;DHT22;3694;48.732;9.248;2023-07-13T09:34:28;29.20;44.30
7307;DHT22;3694;48.732;9.248;2023-07-13T09:36:55;29.80;43.80
7307;DHT22;3694;48.732;9.248;2023-07-13T09:39:28;30.30;43.90
7307;DHT22;3694;48.732;9.248;2023-07-13T09:41:57;29.60;44.40
7307;DHT22;3694;48.732;9.248;2023-07-13T09:44:31;28.10;45.20
7307;DHT22;3694;48.732;9.248;2023-07-13T09:46:58;27.10;46.70
7307;DHT22;3694;48.732;9.248;2023-07-13T09:49:37;27.00;48.30
7307;DHT22;3694;48.732;9.248;2023-07-13T09:52:05;27.20;47.30
7307;DHT22;3694;48.732;9.248;2023-07-13T09:54:34;27.20;47.40
7307;DHT22;3694;48.732;9.248;2023-07-13T09:57:02;26.80;46.90
7307;DHT22;3694;48.732;9.248;2023-07-13T09:59:35;27.10;45.30
7307;DHT22;3694;48.732;9.248;2023-07-13T10:02:01;27.60;45.30
7307;DHT22;3694;48.732;9.248;2023-07-13T10:04:31;27.90;46.20
7307;DHT22;3694;48.732;9.248;2023-07-13T10:07:07;28.70;44.40
7307;DHT22;3694;48.732;9.248;2023-07-13T10:09:33;29.00;44.80
7307;DHT22;3694;48.732;9.248;2023-07-13T10:11:59;28.50;44.40
7307;DHT22;3694;48.732;9.248;2023-07-13T10:14:25;28.10;45.20
7307;DHT22;3694;48.732;9.248;2023-07-13T10:16:59;27.40;44.70
7307;DHT22;3694;48.732;9.248;2023-07-13T10:19:30;27.00;46.60
7307;DHT22;3694;48.732;9.248;2023-07-13T10:21:59;26.50;45.30
7307;DHT22;3694;48.732;9.248;2023-07-13T10:24:27;26.60;45.70
7307;DHT22;3694;48.732;9.248;2023-07-13T10:27:20;26.80;46.90
7307;DHT22;3694;48.732;9.248;2023-07-13T10:29:56;27.20;47.70
7307;DHT22;3694;48.732;9.248;2023-07-13T10:32:24;27.40;46.00
7307;DHT22;3694;48.732;9.248;2023-07-13T10:34:51;27.20;47.10
7307;DHT22;3694;48.732;9.248;2023-07-13T10:37:27;27.70;45.20
7307;DHT22;3694;48.732;9.248;2023-07-13T10:39:55;27.90;44.50
7307;DHT22;3694;48.732;9.248;2023-07-13T10:42:36;28.50;45.70
7307;DHT22;3694;48.732;9.248;2023-07-13T10:45:12;28.90;43.50
7307;DHT22;3694;48.732;9.248;2023-07-13T10:47:38;28.90;44.90
7307;DHT22;3694;48.732;9.248;2023-07-13T10:50:05;28.30;44.90
7307;DHT22;3694;48.732;9.248;2023-07-13T10:52:50;28.30;45.50
7307;DHT22;3694;48.732;9.248;2023-07-13T10:55:54;28.50;45.00
7307;DHT22;3694;48.732;9.248;2023-07-13T10:58:29;28.70;44.90
7307;DHT22;3694;48.732;9.248;2023-07-13T11:03:32;28.20;44.10
7307;DHT22;3694;48.732;9.248;2023-07-13T11:06:16;28.10;44.10
7307;DHT22;3694;48.732;9.248;2023-07-13T11:11:33;27.80;46.20
7307;DHT22;3694;48.732;9.248;2023-07-13T11:14:01;28.00;45.50
7307;DHT22;3694;48.732;9.248;2023-07-13T11:21:29;28.60;45.30
7307;DHT22;3694;48.732;9.248;2023-07-13T11:24:16;29.10;43.80
7307;DHT22;3694;48.732;9.248;2023-07-13T11:31:40;29.40;44.60
7307;DHT22;3694;48.732;9.248;2023-07-13T11:34:13;30.10;44.10
7307;DHT22;3694;48.732;9.248;2023-07-13T11:36:43;30.50;42.30
7307;DHT22;3694;48.732;9.248;2023-07-13T11:39:16;29.90;41.60
7307;DHT22;3694;48.732;9.248;2023-07-13T11:41:48;29.90;41.80
7307;DHT22;3694;48.732;9.248;2023-07-13T11:44:21;30.10;43.10
7307;DHT22;3694;48.732;9.248;2023-07-13T11:46:49;29.20;42.10
7307;DHT22;3694;48.732;9.248;2023-07-13T11:49:17;28.50;42.40
7307;DHT22;3694;48.732;9.248;2023-07-13T11:51:44;27.70;44.10
7307;DHT22;3694;48.732;9.248;2023-07-13T11:54:30;27.10;46.00
7307;DHT22;3694;48.732;9.248;2023-07-13T11:56:58;27.10;45.60
7307;DHT22;3694;48.732;9.248;2023-07-13T11:59:27;26.90;45.10
7307;DHT22;3694;48.732;9.248;2023-07-13T12:01:54;26.90;44.60
7307;DHT22;3694;48.732;9.248;2023-07-13T12:04:29;26.70;44.10
7307;DHT22;3694;48.732;9.248;2023-07-13T12:07:08;26.90;45.50
7307;DHT22;3694;48.732;9.248;2023-07-13T12:09:39;27.00;46.10
7307;DHT22;3694;48.732;9.248;2023-07-13T12:12:11;26.80;44.80
7307;DHT22;3694;48.732;9.248;2023-07-13T12:14:36;27.10;47.30
7307;DHT22;3694;48.732;9.248;2023-07-13T12:17:22;27.10;46.20
7307;DHT22;3694;48.732;9.248;2023-07-13T12:19:52;27.10;43.30
7307;DHT22;3694;48.732;9.248;2023-07-13T12:22:19;27.10;44.10
7307;DHT22;3694;48.732;9.248;2023-07-13T12:24:46;27.00;44.70
7307;DHT22;3694;48.732;9.248;2023-07-13T12:27:27;26.60;45.30
7307;DHT22;3694;48.732;9.248;2023-07-13T12:30:00;26.00;45.50
7307;DHT22;3694;48.732;9.248;2023-07-13T12:32:26;25.50;46.50
7307;DHT22;3694;48.732;9.248;2023-07-13T12:34:56;25.30;47.00
7307;DHT22;3694;48.732;9.248;2023-07-13T12:37:23;25.70;46.10
7307;DHT22;3694;48.732;9.248;2023-07-13T12:39:49;25.90;47.40
7307;DHT22;3694;48.732;9.248;2023-07-13T12:42:25;25.80;47.20
7307;DHT22;3694;48.732;9.248;2023-07-13T12:44:59;25.60;47.10
7307;DHT22;3694;48.732;9.248;2023-07-13T12:47:26;25.80;48.80
7307;DHT22;3694;48.732;9.248;2023-07-13T12:49:57;26.50;47.30
7307;DHT22;3694;48.732;9.248;2023-07-13T12:52:31;27.30;47.20
7307;DHT22;3694;48.732;9.248;2023-07-13T12:55:19;27.90;45.00
7307;DHT22;3694;48.732;9.248;2023-07-13T12:57:51;27.30;44.70
7307;DHT22;3694;48.732;9.248;2023-07-13T13:00:33;27.40;45.20
7307;DHT22;3694;48.732;9.248;2023-07-13T13:03:07;27.00;45.80
7307;DHT22;3694;48.732;9.248;2023-07-13T13:05:33;27.10;45.80
7307;DHT22;3694;48.732;9.248;2023-07-13T13:07:59;27.00;44.70
7307;DHT22;3694;48.732;9.248;2023-07-13T13:10:25;27.20;44.80
7307;DHT22;3694;48.732;9.248;2023-07-13T13:12:52;27.70;46.60
7307;DHT22;3694;48.732;9.248;2023-07-13T13:15:18;28.40;45.00
7307;DHT22;3694;48.732;9.248;2023-07-13T13:17:43;28.60;45.80
7307;DHT22;3694;48.732;9.248;2023-07-13T13:20:15;28.50;44.80
7307;DHT22;3694;48.732;9.248;2023-07-13T13:22:41;28.20;43.80
7307;DHT22;3694;48.732;9.248;2023-07-13T13:25:13;27.50;42.60
7307;DHT22;3694;48.732;9.248;2023-07-13T13:27:41;27.70;46.80
7307;DHT22;3694;48.732;9.248;2023-07-13T13:30:15;28.00;45.30
7307;DHT22;3694;48.732;9.248;2023-07-13T13:32:43;27.70;43.20
7307;DHT22;3694;48.732;9.248;2023-07-13T13:35:17;27.00;44.20
7307;DHT22;3694;48.732;9.248;2023-07-13T13:37:44;26.20;44.40
7307;DHT22;3694;48.732;9.248;2023-07-13T13:40:19;25.50;45.40
7307;DHT22;3694;48.732;9.248;2023-07-13T13:42:45;26.10;46.10
7307;DHT22;3694;48.732;9.248;2023-07-13T13:45:11;27.00;45.70
7307;DHT22;3694;48.732;9.248;2023-07-13T13:47:41;27.80;44.00
7307;DHT22;3694;48.732;9.248;2023-07-13T13:50:18;28.50;42.60
7307;DHT22;3694;48.732;9.248;2023-07-13T13:52:45;28.50;42.30
7307;DHT22;3694;48.732;9.248;2023-07-13T13:55:16;28.50;42.00
7307;DHT22;3694;48.732;9.248;2023-07-13T13:57:45;29.00;43.20
7307;DHT22;3694;48.732;9.248;2023-07-13T14:00:11;28.90;42.30
7307;DHT22;3694;48.732;9.248;2023-07-13T14:02:42;28.70;41.60
7307;DHT22;3694;48.732;9.248;2023-07-13T14:05:13;29.00;42.70
7307;DHT22;3694;48.732;9.248;2023-07-13T14:07:40;29.10;41.60
7307;DHT22;3694;48.732;9.248;2023-07-13T14:10:12;28.70;42.10
7307;DHT22;3694;48.732;9.248;2023-07-13T14:12:39;28.40;43.20
7307;DHT22;3694;48.732;9.248;2023-07-13T14:15:05;28.00;42.50
7307;DHT22;3694;48.732;9.248;2023-07-13T14:17:31;27.80;43.40
7307;DHT22;3694;48.732;9.248;2023-07-13T14:19:56;27.60;43.00
7307;DHT22;3694;48.732;9.248;2023-07-13T14:22:26;27.30;43.20
7307;DHT22;3694;48.732;9.248;2023-07-13T14:24:53;27.70;42.80
7307;DHT22;3694;48.732;9.248;2023-07-13T14:27:19;28.20;42.10
7307;DHT22;3694;48.732;9.248;2023-07-13T14:29:45;28.50;42.00
7307;DHT22;3694;48.732;9.248;2023-07-13T14:32:12;29.10;43.10
7307;DHT22;3694;48.732;9.248;2023-07-13T14:34:38;29.20;41.30
7307;DHT22;3694;48.732;9.248;2023-07-13T14:37:04;28.90;43.00
7307;DHT22;3694;48.732;9.248;2023-07-13T14:39:31;28.60;42.10
7307;DHT22;3694;48.732;9.248;2023-07-13T14:41:57;27.80;43.00
7307;DHT22;3694;48.732;9.248;2023-07-13T14:44:30;27.20;42.30
7307;DHT22;3694;48.732;9.248;2023-07-13T14:46:58;26.80;44.00
7307;DHT22;3694;48.732;9.248;2023-07-13T14:49:34;27.20;43.90
7307;DHT22;3694;48.732;9.248;2023-07-13T14:52:05;26.90;44.30
7307;DHT22;3694;48.732;9.248;2023-07-13T14:54:36;26.40;43.00
7307;DHT22;3694;48.732;9.248;2023-07-13T14:57:12;25.70;44.30
7307;DHT22;3694;48.732;9.248;2023-07-13T14:59:38;25.40;44.40
7307;DHT22;3694;48.732;9.248;2023-07-13T15:04:48;24.90;45.60
7307;DHT22;3694;48.732;9.248;2023-07-13T15:07:13;24.90;44.60
7307;DHT22;3694;48.732;9.248;2023-07-13T15:09:41;25.00;44.90
7307;DHT22;3694;48.732;9.248;2023-07-13T15:12:07;25.80;44.80
7307;DHT22;3694;48.732;9.248;2023-07-13T15:14:33;26.50;43.20
7307;DHT22;3694;48.732;9.248;2023-07-13T15:16:58;26.70;43.30
7307;DHT22;3694;48.732;9.248;2023-07-13T15:19:25;26.80;42.90
7307;DHT22;3694;48.732;9.248;2023-07-13T15:21:52;26.20;44.40
7307;DHT22;3694;48.732;9.248;2023-07-13T15:24:20;26.00;44.90
7307;DHT22;3694;48.732;9.248;2023-07-13T15:26:47;25.80;44.80
7307;DHT22;3694;48.732;9.248;2023-07-13T15:29:15;25.80;44.40
7307;DHT22;3694;48.732;9.248;2023-07-13T15:31:40;25.90;45.50
7307;DHT22;3694;48.732;9.248;2023-07-13T15:34:12;25.90;45.00
7307;DHT22;3694;48.732;9.248;2023-07-13T15:36:38;25.90;44.80
7307;DHT22;3694;48.732;9.248;2023-07-13T15:39:04;26.00;44.90
7307;DHT22;3694;48.732;9.248;2023-07-13T15:41:31;25.90;45.40
7307;DHT22;3694;48.732;9.248;2023-07-13T15:43:58;26.10;44.20
7307;DHT22;3694;48.732;9.248;2023-07-13T15:46:27;26.20;44.70
7307;DHT22;3694;48.732;9.248;2023-07-13T15:48:54;26.50;44.80
7307;DHT22;3694;48.732;9.248;2023-07-13T15:51:30;26.40;44.00
7307;DHT22;3694;48.732;9.248;2023-07-13T15:53:59;26.40;45.00
7307;DHT22;3694;48.732;9.248;2023-07-13T15:56:27;26.00;44.10
7307;DHT22;3694;48.732;9.248;2023-07-13T15:58:53;26.00;43.90
7307;DHT22;3694;48.732;9.248;2023-07-13T16:01:20;26.00;43.90
7307;DHT22;3694;48.732;9.248;2023-07-13T16:03:46;26.00;44.10
7307;DHT22;3694;48.732;9.248;2023-07-13T16:06:15;25.80;43.80
7307;DHT22;3694;48.732;9.248;2023-07-13T16:08:42;25.70;44.70
7307;DHT22;3694;48.732;9.248;2023-07-13T16:11:16;25.60;43.90
7307;DHT22;3694;48.732;9.248;2023-07-13T16:13:43;25.30;44.80
7307;DHT22;3694;48.732;9.248;2023-07-13T16:16:11;25.30;44.60
7307;DHT22;3694;48.732;9.248;2023-07-13T16:18:37;25.40;43.90
7307;DHT22;3694;48.732;9.248;2023-07-13T16:21:09;25.20;44.10
7307;DHT22;3694;48.732;9.248;2023-07-13T16:23:36;25.20;44.20
7307;DHT22;3694;48.732;9.248;2023-07-13T16:26:03;25.00;44.40
7307;DHT22;3694;48.732;9.248;2023-07-13T16:28:29;24.80;45.10
7307;DHT22;3694;48.732;9.248;2023-07-13T16:30:56;24.70;45.20